sensor_id;sensor_type;location;lat;lon;timestamp;temperature;humidity
29479;DHT22;16437;41.836;23.480;2022-11-20T00:01:21;15.10;64.70
29479;DHT22;16437;41.836;23.480;2022-11-20T00:06:47;15.20;64.80
29479;DHT22;16437;41.836;23.480;2022-11-20T00:12:13;15.20;64.80
29479;DHT22;16437;41.836;23.480;2022-11-20T00:17:40;15.20;64.90
29479;DHT22;16437;41.836;23.480;2022-11-20T00:23:06;15.20;64.90
29479;DHT22;16437;41.836;23.480;2022-11-20T00:28:32;15.20;64.90
29479;DHT22;16437;41.836;23.480;2022-11-20T00:33:59;15.20;65.00
29479;DHT22;16437;41.836;23.480;2022-11-20T00:39:25;15.20;65.00
29479;DHT22;16437;41.836;23.480;2022-11-20T00:44:52;15.20;65.00
29479;DHT22;16437;41.836;23.480;2022-11-20T00:50:18;15.20;65.10
29479;DHT22;16437;41.836;23.480;2022-11-20T00:55:53;15.20;65.10
29479;DHT22;16437;41.836;23.480;2022-11-20T01:01:22;15.10;65.20
29479;DHT22;16437;41.836;23.480;2022-11-20T01:06:50;15.20;65.10
29479;DHT22;16437;41.836;23.480;2022-11-20T01:12:16;15.20;65.10
29479;DHT22;16437;41.836;23.480;2022-11-20T01:17:43;15.20;65.00
29479;DHT22;16437;41.836;23.480;2022-11-20T01:23:09;15.20;64.90
29479;DHT22;16437;41.836;23.480;2022-11-20T01:28:36;15.20;64.70
29479;DHT22;16437;41.836;23.480;2022-11-20T01:34:05;15.20;64.60
29479;DHT22;16437;41.836;23.480;2022-11-20T01:39:32;15.20;64.40
29479;DHT22;16437;41.836;23.480;2022-11-20T01:45:00;15.20;64.30
29479;DHT22;16437;41.836;23.480;2022-11-20T01:50:28;15.20;64.20
29479;DHT22;16437;41.836;23.480;2022-11-20T01:55:56;15.20;64.10
29479;DHT22;16437;41.836;23.480;2022-11-20T02:01:23;15.20;64.10
29479;DHT22;16437;41.836;23.480;2022-11-20T02:06:57;15.20;64.10
29479;DHT22;16437;41.836;23.480;2022-11-20T02:12:22;15.20;64.10
29479;DHT22;16437;41.836;23.480;2022-11-20T02:17:50;15.20;64.00
29479;DHT22;16437;41.836;23.480;2022-11-20T02:23:52;15.20;64.00
29479;DHT22;16437;41.836;23.480;2022-11-20T02:29:07;15.20;64.00
29479;DHT22;16437;41.836;23.480;2022-11-20T02:34:33;15.10;64.00
29479;DHT22;16437;41.836;23.480;2022-11-20T02:39:59;15.10;63.90
29479;DHT22;16437;41.836;23.480;2022-11-20T02:45:26;15.20;64.00
29479;DHT22;16437;41.836;23.480;2022-11-20T02:50:53;15.10;64.00
29479;DHT22;16437;41.836;23.480;2022-11-20T02:56:19;15.10;64.00
29479;DHT22;16437;41.836;23.480;2022-11-20T03:01:46;15.20;64.10
29479;DHT22;16437;41.836;23.480;2022-11-20T03:07:12;15.20;64.20
29479;DHT22;16437;41.836;23.480;2022-11-20T03:12:39;15.10;64.20
29479;DHT22;16437;41.836;23.480;2022-11-20T03:18:05;15.10;64.40
29479;DHT22;16437;41.836;23.480;2022-11-20T03:23:32;15.10;64.50
29479;DHT22;16437;41.836;23.480;2022-11-20T03:29:00;15.20;64.70
29479;DHT22;16437;41.836;23.480;2022-11-20T03:34:27;15.10;64.90
29479;DHT22;16437;41.836;23.480;2022-11-20T03:39:54;15.20;65.20
29479;DHT22;16437;41.836;23.480;2022-11-20T03:45:20;15.20;65.40
29479;DHT22;16437;41.836;23.480;2022-11-20T03:50:47;15.20;65.70
29479;DHT22;16437;41.836;23.480;2022-11-20T03:56:15;15.20;65.90
29479;DHT22;16437;41.836;23.480;2022-11-20T04:01:42;15.20;66.20
29479;DHT22;16437;41.836;23.480;2022-11-20T04:07:08;15.20;66.40
29479;DHT22;16437;41.836;23.480;2022-11-20T04:12:34;15.20;66.60
29479;DHT22;16437;41.836;23.480;2022-11-20T04:18:01;15.20;66.60
29479;DHT22;16437;41.836;23.480;2022-11-20T04:23:27;15.20;66.70
29479;DHT22;16437;41.836;23.480;2022-11-20T04:28:54;15.20;66.60
29479;DHT22;16437;41.836;23.480;2022-11-20T04:34:21;15.30;66.40
29479;DHT22;16437;41.836;23.480;2022-11-20T04:39:47;15.20;66.30
29479;DHT22;16437;41.836;23.480;2022-11-20T04:45:14;15.20;66.20
29479;DHT22;16437;41.836;23.480;2022-11-20T04:50:40;15.20;66.00
29479;DHT22;16437;41.836;23.480;2022-11-20T04:56:09;15.20;65.90
29479;DHT22;16437;41.836;23.480;2022-11-20T05:01:37;15.20;65.70
29479;DHT22;16437;41.836;23.480;2022-11-20T05:07:03;15.30;65.60
29479;DHT22;16437;41.836;23.480;2022-11-20T05:12:30;15.20;65.40
29479;DHT22;16437;41.836;23.480;2022-11-20T05:17:57;15.30;65.30
29479;DHT22;16437;41.836;23.480;2022-11-20T05:23:24;15.20;65.20
29479;DHT22;16437;41.836;23.480;2022-11-20T05:28:51;15.20;65.10
29479;DHT22;16437;41.836;23.480;2022-11-20T05:34:18;15.20;65.00
29479;DHT22;16437;41.836;23.480;2022-11-20T05:39:44;15.20;64.90
29479;DHT22;16437;41.836;23.480;2022-11-20T05:45:11;15.30;64.90
29479;DHT22;16437;41.836;23.480;2022-11-20T05:50:37;15.20;64.80
29479;DHT22;16437;41.836;23.480;2022-11-20T05:56:06;15.20;64.70
29479;DHT22;16437;41.836;23.480;2022-11-20T06:01:33;15.20;64.60
29479;DHT22;16437;41.836;23.480;2022-11-20T06:07:01;15.20;64.60
29479;DHT22;16437;41.836;23.480;2022-11-20T06:12:27;15.20;64.60
29479;DHT22;16437;41.836;23.480;2022-11-20T06:17:54;15.20;64.50
29479;DHT22;16437;41.836;23.480;2022-11-20T06:23:21;15.20;64.50
29479;DHT22;16437;41.836;23.480;2022-11-20T06:28:48;15.20;64.60
29479;DHT22;16437;41.836;23.480;2022-11-20T06:34:15;15.20;64.60
29479;DHT22;16437;41.836;23.480;2022-11-20T06:39:42;15.20;64.50
29479;DHT22;16437;41.836;23.480;2022-11-20T06:45:09;15.20;64.60
29479;DHT22;16437;41.836;23.480;2022-11-20T06:50:37;15.20;64.60
29479;DHT22;16437;41.836;23.480;2022-11-20T06:56:03;15.20;64.70
29479;DHT22;16437;41.836;23.480;2022-11-20T07:01:30;15.20;64.60
29479;DHT22;16437;41.836;23.480;2022-11-20T07:06:56;15.20;64.70
29479;DHT22;16437;41.836;23.480;2022-11-20T07:12:23;15.20;64.80
29479;DHT22;16437;41.836;23.480;2022-11-20T07:17:49;15.20;64.80
29479;DHT22;16437;41.836;23.480;2022-11-20T07:23:15;15.10;65.00
29479;DHT22;16437;41.836;23.480;2022-11-20T07:28:44;15.10;65.20
29479;DHT22;16437;41.836;23.480;2022-11-20T07:34:10;15.20;65.40
29479;DHT22;16437;41.836;23.480;2022-11-20T07:39:36;15.30;65.60
29479;DHT22;16437;41.836;23.480;2022-11-20T07:45:03;15.20;65.80
29479;DHT22;16437;41.836;23.480;2022-11-20T07:50:30;15.20;66.00
29479;DHT22;16437;41.836;23.480;2022-11-20T07:56:01;15.20;66.10
29479;DHT22;16437;41.836;23.480;2022-11-20T08:01:28;15.20;66.30
29479;DHT22;16437;41.836;23.480;2022-11-20T08:06:55;15.20;66.50
29479;DHT22;16437;41.836;23.480;2022-11-20T08:12:21;15.20;66.60
29479;DHT22;16437;41.836;23.480;2022-11-20T08:18:08;15.30;66.60
29479;DHT22;16437;41.836;23.480;2022-11-20T08:23:37;15.30;66.70
29479;DHT22;16437;41.836;23.480;2022-11-20T08:29:04;15.30;66.90
29479;DHT22;16437;41.836;23.480;2022-11-20T08:34:30;15.30;66.90
29479;DHT22;16437;41.836;23.480;2022-11-20T08:39:56;15.30;66.90
29479;DHT22;16437;41.836;23.480;2022-11-20T08:45:23;15.30;66.90
29479;DHT22;16437;41.836;23.480;2022-11-20T08:50:50;15.30;67.00
29479;DHT22;16437;41.836;23.480;2022-11-20T08:56:16;15.30;67.20
29479;DHT22;16437;41.836;23.480;2022-11-20T09:01:43;15.30;67.30
29479;DHT22;16437;41.836;23.480;2022-11-20T09:07:09;15.30;67.50
29479;DHT22;16437;41.836;23.480;2022-11-20T09:12:35;15.40;67.70
29479;DHT22;16437;41.836;23.480;2022-11-20T09:18:03;15.40;67.90
29479;DHT22;16437;41.836;23.480;2022-11-20T09:23:34;15.50;68.10
29479;DHT22;16437;41.836;23.480;2022-11-20T09:29:01;15.50;68.20
29479;DHT22;16437;41.836;23.480;2022-11-20T09:34:27;15.40;68.20
29479;DHT22;16437;41.836;23.480;2022-11-20T09:39:54;15.40;68.20
29479;DHT22;16437;41.836;23.480;2022-11-20T09:45:30;15.40;68.20
29479;DHT22;16437;41.836;23.480;2022-11-20T09:56:34;15.50;68.00
29479;DHT22;16437;41.836;23.480;2022-11-20T10:02:02;15.40;68.00
29479;DHT22;16437;41.836;23.480;2022-11-20T10:07:51;15.40;68.00
29479;DHT22;16437;41.836;23.480;2022-11-20T10:25:09;15.40;67.90
29479;DHT22;16437;41.836;23.480;2022-11-20T10:30:14;15.50;67.80
29479;DHT22;16437;41.836;23.480;2022-11-20T10:35:44;15.50;67.80
29479;DHT22;16437;41.836;23.480;2022-11-20T10:41:16;15.50;67.70
29479;DHT22;16437;41.836;23.480;2022-11-20T10:46:51;15.50;67.70
29479;DHT22;16437;41.836;23.480;2022-11-20T10:58:09;15.50;67.70
29479;DHT22;16437;41.836;23.480;2022-11-20T11:03:33;15.50;67.60
29479;DHT22;16437;41.836;23.480;2022-11-20T11:09:09;15.50;67.60
29479;DHT22;16437;41.836;23.480;2022-11-20T11:14:50;15.50;67.70
29479;DHT22;16437;41.836;23.480;2022-11-20T11:20:25;15.50;67.70
29479;DHT22;16437;41.836;23.480;2022-11-20T11:25:57;15.50;67.70
29479;DHT22;16437;41.836;23.480;2022-11-20T11:31:32;15.50;67.60
29479;DHT22;16437;41.836;23.480;2022-11-20T11:37:01;15.50;67.60
29479;DHT22;16437;41.836;23.480;2022-11-20T11:42:29;15.50;67.50
29479;DHT22;16437;41.836;23.480;2022-11-20T11:47:58;15.50;67.40
29479;DHT22;16437;41.836;23.480;2022-11-20T11:53:27;15.50;67.40
29479;DHT22;16437;41.836;23.480;2022-11-20T11:58:56;15.50;67.30
29479;DHT22;16437;41.836;23.480;2022-11-20T12:04:39;15.50;67.20
29479;DHT22;16437;41.836;23.480;2022-11-20T12:10:04;15.50;67.10
29479;DHT22;16437;41.836;23.480;2022-11-20T12:15:33;15.50;67.00
29479;DHT22;16437;41.836;23.480;2022-11-20T12:32:59;15.60;66.80
29479;DHT22;16437;41.836;23.480;2022-11-20T12:45:01;15.60;66.80
29479;DHT22;16437;41.836;23.480;2022-11-20T12:56:27;15.50;66.80
29479;DHT22;16437;41.836;23.480;2022-11-20T13:01:58;15.50;66.70
29479;DHT22;16437;41.836;23.480;2022-11-20T13:07:22;15.50;66.70
29479;DHT22;16437;41.836;23.480;2022-11-20T13:12:57;15.50;66.70
29479;DHT22;16437;41.836;23.480;2022-11-20T13:18:23;15.40;66.70
29479;DHT22;16437;41.836;23.480;2022-11-20T13:23:50;15.40;66.60
29479;DHT22;16437;41.836;23.480;2022-11-20T13:29:19;15.50;66.60
29479;DHT22;16437;41.836;23.480;2022-11-20T13:35:01;15.40;66.70
29479;DHT22;16437;41.836;23.480;2022-11-20T13:40:23;15.40;66.60
29479;DHT22;16437;41.836;23.480;2022-11-20T13:45:59;15.40;66.60
29479;DHT22;16437;41.836;23.480;2022-11-20T13:51:46;15.40;66.60
29479;DHT22;16437;41.836;23.480;2022-11-20T14:03:09;15.40;66.50
29479;DHT22;16437;41.836;23.480;2022-11-20T14:08:39;15.50;66.60
29479;DHT22;16437;41.836;23.480;2022-11-20T14:14:14;15.40;66.50
29479;DHT22;16437;41.836;23.480;2022-11-20T14:19:42;15.40;66.50
29479;DHT22;16437;41.836;23.480;2022-11-20T14:30:47;15.40;66.10
29479;DHT22;16437;41.836;23.480;2022-11-20T14:36:20;15.50;66.00
29479;DHT22;16437;41.836;23.480;2022-11-20T14:41:53;15.50;65.90
29479;DHT22;16437;41.836;23.480;2022-11-20T14:47:21;15.50;65.70
29479;DHT22;16437;41.836;23.480;2022-11-20T14:52:56;15.50;65.70
29479;DHT22;16437;41.836;23.480;2022-11-20T14:58:25;15.50;65.60
29479;DHT22;16437;41.836;23.480;2022-11-20T15:04:07;15.50;65.70
29479;DHT22;16437;41.836;23.480;2022-11-20T15:09:34;15.40;65.60
29479;DHT22;16437;41.836;23.480;2022-11-20T15:15:02;15.50;65.60
29479;DHT22;16437;41.836;23.480;2022-11-20T15:20:32;15.40;65.60
29479;DHT22;16437;41.836;23.480;2022-11-20T15:25:59;15.50;65.60
29479;DHT22;16437;41.836;23.480;2022-11-20T15:31:25;15.50;65.50
29479;DHT22;16437;41.836;23.480;2022-11-20T15:36:51;15.50;65.50
29479;DHT22;16437;41.836;23.480;2022-11-20T15:42:18;15.40;65.50
29479;DHT22;16437;41.836;23.480;2022-11-20T15:47:44;15.40;65.40
29479;DHT22;16437;41.836;23.480;2022-11-20T15:53:10;15.40;65.40
29479;DHT22;16437;41.836;23.480;2022-11-20T15:58:37;15.40;65.40
29479;DHT22;16437;41.836;23.480;2022-11-20T16:04:05;15.40;65.40
29479;DHT22;16437;41.836;23.480;2022-11-20T16:09:32;15.40;65.40
29479;DHT22;16437;41.836;23.480;2022-11-20T16:14:58;15.40;65.30
29479;DHT22;16437;41.836;23.480;2022-11-20T16:20:44;15.40;65.30
29479;DHT22;16437;41.836;23.480;2022-11-20T16:26:15;15.40;65.30
29479;DHT22;16437;41.836;23.480;2022-11-20T16:31:46;15.40;65.20
29479;DHT22;16437;41.836;23.480;2022-11-20T16:37:12;15.40;65.20
29479;DHT22;16437;41.836;23.480;2022-11-20T16:42:38;15.40;65.10
29479;DHT22;16437;41.836;23.480;2022-11-20T16:48:05;15.40;65.10
29479;DHT22;16437;41.836;23.480;2022-11-20T16:53:33;15.40;65.00
29479;DHT22;16437;41.836;23.480;2022-11-20T16:59:00;15.40;65.00
29479;DHT22;16437;41.836;23.480;2022-11-20T17:04:27;15.40;65.00
29479;DHT22;16437;41.836;23.480;2022-11-20T17:09:53;15.40;64.90
29479;DHT22;16437;41.836;23.480;2022-11-20T17:15:20;15.30;64.90
29479;DHT22;16437;41.836;23.480;2022-11-20T17:20:51;15.30;64.80
29479;DHT22;16437;41.836;23.480;2022-11-20T17:26:20;15.40;64.60
29479;DHT22;16437;41.836;23.480;2022-11-20T17:31:47;15.30;64.60
29479;DHT22;16437;41.836;23.480;2022-11-20T17:37:13;15.40;64.50
29479;DHT22;16437;41.836;23.480;2022-11-20T17:42:40;15.40;64.50
29479;DHT22;16437;41.836;23.480;2022-11-20T17:48:06;15.30;64.40
29479;DHT22;16437;41.836;23.480;2022-11-20T17:53:36;15.40;64.30
29479;DHT22;16437;41.836;23.480;2022-11-20T17:59:13;15.40;64.60
29479;DHT22;16437;41.836;23.480;2022-11-20T18:04:36;15.40;64.50
29479;DHT22;16437;41.836;23.480;2022-11-20T18:10:03;15.30;64.50
29479;DHT22;16437;41.836;23.480;2022-11-20T18:15:29;15.30;64.50
29479;DHT22;16437;41.836;23.480;2022-11-20T18:20:56;15.30;64.50
29479;DHT22;16437;41.836;23.480;2022-11-20T18:26:24;15.30;64.50
29479;DHT22;16437;41.836;23.480;2022-11-20T18:31:50;15.30;64.50
29479;DHT22;16437;41.836;23.480;2022-11-20T18:37:17;15.30;64.40
29479;DHT22;16437;41.836;23.480;2022-11-20T18:42:44;15.30;64.40
29479;DHT22;16437;41.836;23.480;2022-11-20T18:48:30;15.30;64.40
29479;DHT22;16437;41.836;23.480;2022-11-20T18:53:57;15.30;64.40
29479;DHT22;16437;41.836;23.480;2022-11-20T18:59:24;15.30;64.40
29479;DHT22;16437;41.836;23.480;2022-11-20T19:04:50;15.30;64.40
29479;DHT22;16437;41.836;23.480;2022-11-20T19:10:18;15.30;64.40
29479;DHT22;16437;41.836;23.480;2022-11-20T19:15:44;15.30;64.40
29479;DHT22;16437;41.836;23.480;2022-11-20T19:21:13;15.30;64.30
29479;DHT22;16437;41.836;23.480;2022-11-20T19:26:40;15.30;64.30
29479;DHT22;16437;41.836;23.480;2022-11-20T19:32:07;15.30;64.30
29479;DHT22;16437;41.836;23.480;2022-11-20T19:37:34;15.30;64.20
29479;DHT22;16437;41.836;23.480;2022-11-20T19:43:01;15.30;64.20
29479;DHT22;16437;41.836;23.480;2022-11-20T19:48:30;15.20;64.10
29479;DHT22;16437;41.836;23.480;2022-11-20T19:53:58;15.20;64.10
29479;DHT22;16437;41.836;23.480;2022-11-20T19:59:25;15.30;64.00
29479;DHT22;16437;41.836;23.480;2022-11-20T20:04:51;15.20;64.00
29479;DHT22;16437;41.836;23.480;2022-11-20T20:10:17;15.30;64.00
29479;DHT22;16437;41.836;23.480;2022-11-20T20:15:44;15.20;64.00
29479;DHT22;16437;41.836;23.480;2022-11-20T20:21:13;15.20;64.00
29479;DHT22;16437;41.836;23.480;2022-11-20T20:26:40;15.20;64.00
29479;DHT22;16437;41.836;23.480;2022-11-20T20:32:06;15.30;63.90
29479;DHT22;16437;41.836;23.480;2022-11-20T20:37:32;15.30;63.90
29479;DHT22;16437;41.836;23.480;2022-11-20T20:42:59;15.30;63.90
29479;DHT22;16437;41.836;23.480;2022-11-20T20:48:25;15.30;63.80
29479;DHT22;16437;41.836;23.480;2022-11-20T20:53:52;15.20;63.90
29479;DHT22;16437;41.836;23.480;2022-11-20T20:59:19;15.20;63.90
29479;DHT22;16437;41.836;23.480;2022-11-20T21:04:46;15.20;63.90
29479;DHT22;16437;41.836;23.480;2022-11-20T21:10:12;15.30;63.90
29479;DHT22;16437;41.836;23.480;2022-11-20T21:15:39;15.20;63.90
29479;DHT22;16437;41.836;23.480;2022-11-20T21:21:07;15.20;63.90
29479;DHT22;16437;41.836;23.480;2022-11-20T21:26:53;15.20;63.90
29479;DHT22;16437;41.836;23.480;2022-11-20T21:32:19;15.20;63.90
29479;DHT22;16437;41.836;23.480;2022-11-20T21:37:45;15.20;64.00
29479;DHT22;16437;41.836;23.480;2022-11-20T21:43:11;15.20;63.80
29479;DHT22;16437;41.836;23.480;2022-11-20T21:48:39;15.20;63.90
29479;DHT22;16437;41.836;23.480;2022-11-20T21:54:06;15.20;63.90
29479;DHT22;16437;41.836;23.480;2022-11-20T21:59:32;15.20;63.90
29479;DHT22;16437;41.836;23.480;2022-11-20T22:04:59;15.20;63.90
29479;DHT22;16437;41.836;23.480;2022-11-20T22:10:25;15.20;63.90
29479;DHT22;16437;41.836;23.480;2022-11-20T22:15:52;15.20;63.90
29479;DHT22;16437;41.836;23.480;2022-11-20T22:21:21;15.20;63.80
29479;DHT22;16437;41.836;23.480;2022-11-20T22:26:48;15.20;63.70
29479;DHT22;16437;41.836;23.480;2022-11-20T22:32:15;15.20;63.50
29479;DHT22;16437;41.836;23.480;2022-11-20T22:37:41;15.20;63.40
29479;DHT22;16437;41.836;23.480;2022-11-20T22:43:07;15.10;63.30
29479;DHT22;16437;41.836;23.480;2022-11-20T22:48:35;15.10;63.30
29479;DHT22;16437;41.836;23.480;2022-11-20T22:54:02;15.10;63.20
29479;DHT22;16437;41.836;23.480;2022-11-20T22:59:28;15.20;63.20
29479;DHT22;16437;41.836;23.480;2022-11-20T23:04:55;15.10;63.20
29479;DHT22;16437;41.836;23.480;2022-11-20T23:10:21;15.10;63.20
29479;DHT22;16437;41.836;23.480;2022-11-20T23:15:47;15.10;63.30
29479;DHT22;16437;41.836;23.480;2022-11-20T23:21:16;15.10;63.30
29479;DHT22;16437;41.836;23.480;2022-11-20T23:26:42;15.10;63.30
29479;DHT22;16437;41.836;23.480;2022-11-20T23:32:10;15.10;63.30
29479;DHT22;16437;41.836;23.480;2022-11-20T23:37:37;15.10;63.30
29479;DHT22;16437;41.836;23.480;2022-11-20T23:43:03;15.10;63.30
29479;DHT22;16437;41.836;23.480;2022-11-20T23:48:43;15.10;63.20
29479;DHT22;16437;41.836;23.480;2022-11-20T23:54:09;15.10;63.20
29479;DHT22;16437;41.836;23.480;2022-11-20T23:59:36;15.10;63.30
